createdAt,value
2019-03-04T00:03:05.973Z,8.12
2019-03-04T00:08:14.954Z,8.68
2019-03-04T00:13:25.670Z,8.06
2019-03-04T00:18:24.197Z,8.66
2019-03-04T00:23:34.366Z,8.72
2019-03-04T00:28:36.525Z,8.08
2019-03-04T00:33:36.407Z,7.57
2019-03-04T00:38:50.596Z,7.06
2019-03-04T00:43:53.193Z,8.51
2019-03-04T00:48:55.266Z,7.64
2019-03-04T00:53:55.425Z,8.57
2019-03-04T00:59:00.484Z,7.66
2019-03-04T01:04:03.166Z,7.21
2019-03-04T01:09:00.962Z,7.36
2019-03-04T01:14:11.149Z,7.42
2019-03-04T01:19:09.887Z,6.93
2019-03-04T01:24:20.110Z,7.23
2019-03-04T01:29:20.611Z,6.17
2019-03-04T01:34:21.332Z,6.13
2019-03-04T01:39:20.262Z,7.42
2019-03-04T01:44:29.440Z,6.87
2019-03-04T01:49:29.221Z,6.66
2019-03-04T01:54:40.992Z,7.89
2019-03-04T01:59:43.036Z,6.99
2019-03-04T02:04:47.953Z,6.43
2019-03-04T02:09:48.063Z,6.93
2019-03-04T02:14:49.224Z,6.78
2019-03-04T02:19:50.536Z,6.84
2019-03-04T02:24:51.599Z,7.83
2019-03-04T02:29:52.222Z,7.28
2019-03-04T02:34:51.250Z,9.95
2019-03-04T02:40:00.429Z,7.63
2019-03-04T02:45:22.412Z,8.59
2019-03-04T02:50:16.055Z,7.58
2019-03-04T02:55:22.964Z,6.42
2019-03-04T03:00:34.118Z,5.82
2019-03-04T03:05:42.609Z,6.02
2019-03-04T03:10:43.759Z,5.58
2019-03-04T03:15:49.757Z,6.29
2019-03-04T03:21:02.162Z,6.56
2019-03-04T03:25:58.403Z,6.60
2019-03-04T03:31:10.197Z,5.89
2019-03-04T03:36:00.070Z,6.95
2019-03-04T03:41:02.816Z,6.29
2019-03-04T03:46:14.523Z,6.05
2019-03-04T03:51:17.849Z,5.86
2019-03-04T03:56:09.761Z,5.74
2019-03-04T04:01:14.496Z,6.14
2019-03-04T04:06:16.045Z,5.78
2019-03-04T04:11:15.529Z,6.75
2019-03-04T04:16:27.652Z,6.38
2019-03-04T04:21:28.116Z,6.24
2019-03-04T04:26:28.794Z,5.99
2019-03-04T04:31:31.438Z,5.99
2019-03-04T04:36:35.140Z,5.89
2019-03-04T04:41:32.050Z,6.54
2019-03-04T04:46:44.336Z,6.50
2019-03-04T04:51:45.840Z,5.89
2019-03-04T04:56:48.760Z,6.07
2019-03-04T05:01:56.710Z,6.30
2019-03-04T05:07:01.484Z,6.48
2019-03-04T05:12:01.123Z,6.59
2019-03-04T05:17:07.196Z,6.44
2019-03-04T05:22:13.514Z,6.24
2019-03-04T05:27:13.450Z,6.56
2019-03-04T05:32:13.585Z,6.12
2019-03-04T05:37:31.356Z,6.23
2019-03-04T05:42:29.977Z,6.12
2019-03-04T05:47:43.634Z,5.94
2019-03-04T05:52:53.038Z,7.14
2019-03-04T05:57:56.176Z,5.81
2019-03-04T06:03:13.943Z,6.74
2019-03-04T06:08:04.641Z,5.63
2019-03-04T06:13:16.615Z,5.63
2019-03-04T06:18:06.097Z,5.71
2019-03-04T06:23:12.996Z,5.69
2019-03-04T06:28:11.990Z,5.66
2019-03-04T06:33:23.427Z,4.93
2019-03-04T06:38:22.971Z,5.60
2019-03-04T06:43:31.474Z,5.58
2019-03-04T06:48:33.449Z,7.40
2019-03-04T06:53:37.802Z,7.79
2019-03-04T06:58:38.684Z,7.50
2019-03-04T07:03:42.710Z,6.57
2019-03-04T07:08:42.459Z,6.36
2019-03-04T07:13:57.155Z,6.71
2019-03-04T07:18:59.950Z,7.01
2019-03-04T07:24:02.080Z,7.10
2019-03-04T07:29:07.974Z,7.28
2019-03-04T07:34:07.218Z,7.68
2019-03-04T07:39:17.920Z,12.91
2019-03-04T07:44:18.250Z,16.13
2019-03-04T07:49:17.624Z,12.40
2019-03-04T07:54:28.035Z,7.35
2019-03-04T07:59:30.403Z,6.78
2019-03-04T08:04:32.149Z,6.79
2019-03-04T08:09:34.761Z,6.29
2019-03-04T08:14:42.217Z,9.81
2019-03-04T08:19:41.654Z,10.49
2019-03-04T08:24:42.853Z,7.00
2019-03-04T08:29:43.829Z,7.10
2019-03-04T08:34:45.184Z,7.69
2019-03-04T08:39:47.925Z,7.82
2019-03-04T08:44:47.375Z,7.28
2019-03-04T08:49:49.272Z,9.14
2019-03-04T08:54:51.258Z,9.01
2019-03-04T08:59:54.293Z,11.17
2019-03-04T09:04:56.342Z,14.35
2019-03-04T09:10:14.607Z,14.79
2019-03-04T09:15:12.355Z,15.23
2019-03-04T09:20:17.890Z,15.57
2019-03-04T09:25:29.856Z,15.78
2019-03-04T09:40:49.231Z,15.14
2019-03-04T09:45:45.043Z,16.96
2019-03-04T09:50:58.708Z,17.31
2019-03-04T09:55:48.404Z,17.76
2019-03-04T10:01:02.681Z,16.02
2019-03-04T10:05:58.548Z,16.05
2019-03-04T10:11:15.111Z,14.15
2019-03-04T10:16:18.724Z,12.29
2019-03-04T10:21:23.267Z,12.61
2019-03-04T10:26:27.347Z,15.58
2019-03-04T10:31:29.227Z,12.48
2019-03-04T10:36:20.309Z,12.49
2019-03-04T10:41:26.193Z,12.27
2019-03-04T10:46:43.576Z,12.36
2019-03-04T10:51:39.216Z,10.57
2019-03-04T10:56:43.322Z,8.69
2019-03-04T11:01:55.125Z,5.69
2019-03-04T11:06:48.271Z,5.24
2019-03-04T11:12:03.305Z,6.47
2019-03-04T11:16:54.078Z,6.46
2019-03-04T11:21:58.999Z,3.85
2019-03-04T11:27:01.090Z,5.89
2019-03-04T11:32:03.229Z,5.18
2019-03-04T11:37:16.413Z,4.72
2019-03-04T11:42:08.139Z,10.26
2019-03-04T11:47:11.959Z,5.91
2019-03-04T11:52:25.385Z,5.95
2019-03-04T11:57:19.834Z,5.65
2019-03-04T12:02:20.051Z,4.92
2019-03-04T12:17:30.885Z,3.97
2019-03-04T12:22:33.128Z,6.83
2019-03-04T12:27:33.201Z,3.85
2019-03-04T12:32:45.201Z,3.10
2019-03-04T12:42:39.716Z,4.04
2019-03-04T12:47:38.990Z,3.74
2019-03-04T12:52:39.673Z,4.10
2019-03-04T12:57:38.268Z,3.86
2019-03-04T13:03:04.624Z,3.86
2019-03-04T13:08:03.484Z,2.93
2019-03-04T13:13:06.653Z,3.34
2019-03-04T13:18:13.428Z,3.05
2019-03-04T13:23:17.713Z,3.45
2019-03-04T13:28:15.776Z,3.22
2019-03-04T13:33:28.077Z,3.39
2019-03-04T13:38:27.089Z,3.87
2019-03-04T13:43:48.799Z,2.74
2019-03-04T13:48:36.246Z,3.12
2019-03-04T13:53:51.889Z,2.52
2019-03-04T13:58:54.437Z,2.45
2019-03-04T14:04:01.244Z,2.49
2019-03-04T14:08:58.990Z,2.67
2019-03-04T14:14:17.800Z,3.14
2019-03-04T14:19:24.663Z,3.14
2019-03-04T14:24:25.146Z,3.33
2019-03-04T14:29:27.921Z,3.55
2019-03-04T14:34:27.138Z,3.07
2019-03-04T14:39:38.083Z,3.15
2019-03-04T14:44:40.517Z,3.28
2019-03-04T14:49:44.816Z,3.92
2019-03-04T14:54:49.201Z,3.42
2019-03-04T14:59:49.147Z,3.79
2019-03-04T15:05:01.489Z,4.03
2019-03-04T15:10:11.906Z,4.03
2019-03-04T15:15:29.607Z,3.81
2019-03-04T15:20:33.292Z,3.93
2019-03-04T15:25:28.609Z,3.73
2019-03-04T15:30:52.655Z,3.10
2019-03-04T15:35:37.354Z,3.66
2019-03-04T15:40:51.096Z,3.57
2019-03-04T15:45:59.660Z,3.21
2019-03-04T15:51:00.465Z,3.19
2019-03-04T15:55:57.320Z,3.66
2019-03-04T16:01:17.181Z,3.68
2019-03-04T16:06:16.235Z,2.91
2019-03-04T16:11:21.276Z,3.50
2019-03-04T16:16:19.954Z,3.05
2019-03-04T16:21:16.786Z,3.06
2019-03-04T16:26:34.458Z,2.90
2019-03-04T16:31:42.900Z,3.04
2019-03-04T16:36:37.619Z,2.79
2019-03-04T16:41:39.031Z,3.01
2019-03-04T16:46:46.197Z,3.13
2019-03-04T16:51:50.488Z,2.80
2019-03-04T16:57:03.317Z,3.22
2019-03-04T17:02:06.912Z,3.25
2019-03-04T17:07:00.963Z,3.29
2019-03-04T17:12:01.775Z,3.90
2019-03-04T17:17:09.163Z,2.95
2019-03-04T17:22:11.610Z,3.24
2019-03-04T17:27:13.275Z,2.87
2019-03-04T17:32:18.636Z,2.51
2019-03-04T17:37:25.561Z,2.78
2019-03-04T17:42:32.612Z,3.51
2019-03-04T17:47:34.314Z,2.96
2019-03-04T17:52:38.469Z,2.98
2019-03-04T17:57:39.126Z,3.74
2019-03-04T18:02:44.307Z,3.25
2019-03-04T18:07:53.050Z,3.60
2019-03-04T18:13:09.691Z,4.02
2019-03-04T18:17:59.486Z,3.88
2019-03-04T18:23:20.945Z,3.53
2019-03-04T18:28:01.200Z,2.60
2019-03-04T18:33:05.146Z,2.23
2019-03-04T18:38:08.269Z,1.89
2019-03-04T18:43:11.091Z,2.35
2019-03-04T18:48:11.566Z,1.62
2019-03-04T18:53:12.477Z,1.35
2019-03-04T18:58:14.192Z,1.50
2019-03-04T19:03:13.150Z,1.42
2019-03-04T19:08:12.211Z,1.98
2019-03-04T19:13:32.241Z,2.19
2019-03-04T19:18:35.786Z,2.59
2019-03-04T19:23:34.623Z,1.86
2019-03-04T19:28:46.421Z,2.30
2019-03-04T19:33:50.543Z,2.44
2019-03-04T19:38:52.497Z,2.47
2019-03-04T19:44:05.245Z,2.59
2019-03-04T19:48:57.320Z,2.13
2019-03-04T19:54:05.375Z,2.04
2019-03-04T19:59:07.187Z,2.46
2019-03-04T20:04:10.285Z,4.96
2019-03-04T20:09:13.248Z,5.39
2019-03-04T20:14:18.108Z,5.53
2019-03-04T20:19:22.777Z,3.77
2019-03-04T20:24:25.222Z,6.36
2019-03-04T20:29:27.643Z,4.24
2019-03-04T20:34:38.452Z,14.50
2019-03-04T20:39:39.357Z,7.06
2019-03-04T20:44:46.622Z,12.56
2019-03-04T20:49:48.433Z,5.17
2019-03-04T20:54:49.335Z,5.44
2019-03-04T20:59:52.397Z,5.44
2019-03-04T21:04:53.360Z,8.29
2019-03-04T21:09:54.199Z,8.66
2019-03-04T21:19:56.917Z,10.98
2019-03-04T21:25:08.693Z,15.05
2019-03-04T21:30:16.272Z,9.19
2019-03-04T21:35:23.018Z,7.89
2019-03-04T21:40:32.135Z,8.72
2019-03-04T21:45:42.461Z,7.22
2019-03-04T21:50:43.935Z,6.83
2019-03-04T21:55:46.141Z,6.77
2019-03-04T22:01:01.945Z,7.40
2019-03-04T22:05:51.904Z,6.83
2019-03-04T22:10:57.797Z,6.52
2019-03-04T22:16:05.421Z,7.50
2019-03-04T22:21:16.510Z,7.98
2019-03-04T22:26:20.320Z,7.64
2019-03-04T22:31:33.562Z,6.00
2019-03-04T22:36:04.717Z,4.99
2019-03-04T22:46:34.609Z,8.32
2019-03-04T22:51:39.967Z,13.62
2019-03-04T22:56:37.301Z,19.72
2019-03-04T23:01:54.436Z,16.61
2019-03-04T23:06:46.220Z,5.88
2019-03-04T23:11:51.553Z,9.39
2019-03-04T23:16:56.237Z,5.82
2019-03-04T23:21:57.237Z,5.34
2019-03-04T23:27:02.583Z,5.69
2019-03-04T23:32:13.958Z,16.26
2019-03-04T23:37:11.835Z,14.71
2019-03-04T23:42:15.977Z,6.10
2019-03-04T23:47:15.097Z,5.57
2019-03-04T23:52:26.984Z,5.42
2019-03-04T23:57:35.984Z,6.43
